Time;durP1;ratioP1;P1;durP2;ratioP2;P2;SDS_P1;SDS_P2;PMS_P1;PMS_P2;Temp;Humidity;BMP_temperature;BMP_pressure;BME280_temperature;BME280_humidity;BME280_pressure;Samples;Min_cycle;Max_cycle;Signal;HPM_P1;HPM_P2
2023/09/26 10:25:41;;;;;;;;;;;;;;;22.75;65.68;97434.25;568656;233;43709;-67
2023/09/26 10:28:11;;;;;;;;;;;;;;;22.64;65.76;97416.56;594630;238;49532;-66
2023/09/26 10:30:45;;;;;;;;;;;;;;;22.74;65.92;97424.59;592778;237;65298;-66
2023/09/26 10:33:13;;;;;;;;;;;;;;;22.72;65.84;97429.41;594627;238;68675;-66
2023/09/26 10:35:44;;;;;;;;;;;;;;;22.72;66.10;97432.08;594666;238;68702;-66
2023/09/26 10:38:20;;;;;;;;;;;;;;;22.70;65.90;97426.22;593814;238;46203;-67
2023/09/26 10:40:44;;;;;;;;;;;;;;;22.68;66.04;97436.40;594369;237;68809;-66
2023/09/26 10:43:12;;;;;;;;;;;;;;;22.68;66.29;97430.24;594654;237;68575;-66
2023/09/26 10:45:44;;;;;;;;;;;;;;;22.65;66.42;97428.91;594623;238;65235;-67
2023/09/26 10:48:13;;;;;;;;;;;;;;;22.64;66.50;97438.00;594724;238;68617;-67
2023/09/26 10:50:41;;;;;;;;;;;;;;;22.64;66.63;97438.00;594543;237;68533;-67
2023/09/26 10:53:08;;;;;;;;;;;;;;;22.63;66.78;97432.92;594563;238;64899;-67
2023/09/26 10:55:37;;;;;;;;;;;;;;;22.62;66.86;97434.81;594685;238;69280;-68
2023/09/26 10:58:05;;;;;;;;;;;;;;;22.60;66.86;97427.03;594604;238;68781;-66
2023/09/26 11:00:32;;;;;;;;;;;;;;;22.59;66.88;97421.96;594626;238;65069;-66
2023/09/26 11:03:00;;;;;;;;;;;;;;;22.58;66.85;97423.81;594490;238;68668;-66
2023/09/26 11:05:30;;;;;;;;;;;;;;;22.59;67.05;97430.00;594610;238;68923;-66
2023/09/26 11:07:57;;;;;;;;;;;;;;;22.58;67.18;97423.81;594620;238;65328;-66
2023/09/26 11:10:24;;;;;;;;;;;;;;;22.57;67.09;97419.54;594704;238;68878;-68
2023/09/26 11:12:52;;;;;;;;;;;;;;;22.57;67.29;97418.74;594558;238;69596;-67
2023/09/26 11:15:19;;;;;;;;;;;;;;;22.56;67.36;97420.62;594661;238;64720;-71
2023/09/26 11:17:48;;;;;;;;;;;;;;;22.56;67.21;97417.95;594649;238;66475;-66
2023/09/26 11:20:16;;;;;;;;;;;;;;;22.56;67.07;97406.41;594608;238;66372;-66
2023/09/26 11:22:45;;;;;;;;;;;;;;;22.56;67.54;97417.95;594655;238;64905;-66
2023/09/26 11:25:13;;;;;;;;;;;;;;;22.56;67.18;97419.80;594616;238;68647;-66
2023/09/26 11:27:41;;;;;;;;;;;;;;;22.56;67.51;97428.66;594571;238;68563;-65
2023/09/26 11:30:10;;;;;;;;;;;;;;;22.56;67.33;97430.52;594630;238;62784;-66
2023/09/26 11:32:38;;;;;;;;;;;;;;;22.56;67.29;97436.70;594678;238;66788;-66
2023/09/26 11:35:08;;;;;;;;;;;;;;;22.56;67.28;97436.70;594646;238;68441;-65
2023/09/26 11:37:38;;;;;;;;;;;;;;;22.56;67.31;97427.84;594636;237;63045;-66
2023/09/26 11:40:07;;;;;;;;;;;;;;;22.56;67.35;97438.55;594561;237;68947;-67
2023/09/26 11:42:55;;;;;;;;;;;;;;;22.55;67.34;97428.92;594542;237;69102;-66
2023/09/26 11:45:20;;;;;;;;;;;;;;;22.55;67.22;97443.11;594293;237;62799;-66
2023/09/26 11:47:48;;;;;;;;;;;;;;;22.55;67.41;97424.36;594612;238;68779;-66
2023/09/26 11:50:15;;;;;;;;;;;;;;;22.55;67.24;97432.39;594621;236;68414;-67
2023/09/26 11:52:43;;;;;;;;;;;;;;;22.55;67.34;97431.59;594669;238;65052;-69
2023/09/26 11:55:12;;;;;;;;;;;;;;;22.55;67.37;97423.56;594593;236;66371;-67
2023/09/26 11:57:39;;;;;;;;;;;;;;;22.55;67.58;97415.53;594686;238;68891;-67
2023/09/26 12:00:15;;;;;;;;;;;;;;;22.55;67.35;97424.36;594749;238;65070;-67
2023/09/26 12:02:42;;;;;;;;;;;;;;;22.55;67.24;97419.00;594558;238;66090;-66
2023/09/26 12:05:09;;;;;;;;;;;;;;;22.55;67.43;97413.64;594651;238;67180;-67
2023/09/26 12:07:37;;;;;;;;;;;;;;;22.55;67.70;97413.64;594647;238;65126;-66
2023/09/26 12:10:06;;;;;;;;;;;;;;;22.56;67.38;97422.48;594639;238;69286;-66
2023/09/26 12:12:33;;;;;;;;;;;;;;;22.54;67.23;97412.05;594705;238;68760;-66
2023/09/26 12:15:19;;;;;;;;;;;;;;;22.55;67.48;97402.13;594644;238;62883;-66
2023/09/26 12:17:51;;;;;;;;;;;;;;;22.56;67.53;97411.77;594625;238;66556;-67
2023/09/26 12:20:24;;;;;;;;;;;;;;;22.55;67.43;97408.29;594744;238;68594;-67
2023/09/26 12:22:52;;;;;;;;;;;;;;;22.55;67.52;97408.29;594464;238;64937;-67
2023/09/26 12:25:27;;;;;;;;;;;;;;;22.55;67.40;97399.45;594667;238;68867;-67
2023/09/26 12:27:50;;;;;;;;;;;;;;;22.55;67.54;97394.89;595268;236;66338;-67
2023/09/26 12:30:23;;;;;;;;;;;;;;;22.56;67.39;97406.41;595606;238;65112;-67
2023/09/26 12:32:53;;;;;;;;;;;;;;;22.56;67.61;97407.23;595503;238;68988;-67
2023/09/26 12:35:18;;;;;;;;;;;;;;;22.56;67.65;97398.38;595109;238;68531;-67
2023/09/26 12:37:46;;;;;;;;;;;;;;;22.55;67.64;97394.89;595601;238;64905;-67
2023/09/26 12:40:13;;;;;;;;;;;;;;;22.56;67.75;97406.41;595684;238;66336;-66
2023/09/26 12:42:41;;;;;;;;;;;;;;;22.56;67.85;97393.02;595799;235;66574;-67
2023/09/26 12:45:09;;;;;;;;;;;;;;;22.56;67.69;97407.23;595584;238;63068;-66
2023/09/26 12:47:37;;;;;;;;;;;;;;;22.56;67.69;97393.84;595816;235;68902;-66
2023/09/26 12:50:08;;;;;;;;;;;;;;;22.56;67.61;97398.38;595746;238;68044;-67
2023/09/26 12:52:34;;;;;;;;;;;;;;;22.56;67.53;97393.02;595623;236;65260;-68
2023/09/26 12:55:02;;;;;;;;;;;;;;;22.57;67.48;97391.95;595715;238;68523;-73
2023/09/26 12:57:30;;;;;;;;;;;;;;;22.56;67.72;97393.02;595764;238;68829;-68
2023/09/26 12:59:57;;;;;;;;;;;;;;;22.56;67.37;97395.69;595750;238;62775;-72
2023/09/26 13:02:25;;;;;;;;;;;;;;;22.57;65.46;97395.44;595810;238;66376;-67
2023/09/26 13:04:53;;;;;;;;;;;;;;;22.57;66.12;97390.08;595724;238;65953;-67
2023/09/26 13:07:24;;;;;;;;;;;;;;;22.57;66.60;97387.40;595434;238;65020;-67
2023/09/26 13:09:52;;;;;;;;;;;;;;;22.59;66.83;97395.17;595751;238;66344;-66
2023/09/26 13:12:20;;;;;;;;;;;;;;;22.61;66.85;97398.36;595751;238;68553;-66
2023/09/26 13:14:47;;;;;;;;;;;;;;;22.60;66.98;97392.20;590824;238;65453;-65
2023/09/26 13:17:15;;;;;;;;;;;;;;;22.60;66.97;97400.24;590912;238;65972;-66
2023/09/26 13:19:43;;;;;;;;;;;;;;;22.60;66.89;97394.09;595748;238;66447;-69
2023/09/26 13:22:13;;;;;;;;;;;;;;;22.61;66.98;97398.36;595440;238;46454;-66
2023/09/26 13:24:41;;;;;;;;;;;;;;;22.61;66.86;97401.04;595838;238;68873;-66
2023/09/26 13:27:09;;;;;;;;;;;;;;;22.61;67.19;97401.04;595079;237;68991;-66
2023/09/26 13:29:37;;;;;;;;;;;;;;;22.61;67.52;97401.04;594653;238;65037;-67
2023/09/26 13:32:04;;;;;;;;;;;;;;;22.61;67.64;97409.87;594686;238;68746;-64
2023/09/26 13:34:33;;;;;;;;;;;;;;;22.60;67.76;97399.45;594658;238;66757;-65
2023/09/26 13:37:01;;;;;;;;;;;;;;;22.63;67.96;97403.46;594661;238;64618;-65
2023/09/26 13:39:28;;;;;;;;;;;;;;;22.63;67.94;97400.78;594715;238;69798;-65
2023/09/26 13:41:56;;;;;;;;;;;;;;;22.63;68.06;97403.46;594633;238;66396;-64
2023/09/26 13:44:23;;;;;;;;;;;;;;;22.63;68.09;97392.75;594700;238;64919;-65
2023/09/26 13:46:51;;;;;;;;;;;;;;;22.62;67.73;97397.30;594613;238;68673;-65
2023/09/26 13:49:18;;;;;;;;;;;;;;;22.61;67.64;97390.33;594590;238;68713;-66
2023/09/26 13:51:46;;;;;;;;;;;;;;;22.62;67.87;97391.95;594687;238;65238;-65
2023/09/26 13:54:14;;;;;;;;;;;;;;;22.61;67.69;97385.77;594725;238;66452;-66
2023/09/26 13:56:41;;;;;;;;;;;;;;;22.61;67.84;97387.65;594662;238;68730;-67
2023/09/26 13:59:09;;;;;;;;;;;;;;;22.61;67.99;97383.09;594625;238;65245;-67
2023/09/26 14:01:36;;;;;;;;;;;;;;;22.61;67.80;97384.97;594696;238;69611;-65
2023/09/26 14:04:05;;;;;;;;;;;;;;;22.61;67.99;97383.09;594693;238;68500;-66
2023/09/26 14:06:33;;;;;;;;;;;;;;;22.61;68.17;97379.61;594616;238;63036;-66
2023/09/26 14:09:00;;;;;;;;;;;;;;;22.63;68.16;97377.47;594662;238;66765;-66
2023/09/26 14:11:28;;;;;;;;;;;;;;;22.63;68.30;97379.35;594625;238;66754;-66
2023/09/26 14:13:55;;;;;;;;;;;;;;;22.62;68.15;97383.91;594661;238;65037;-65
2023/09/26 14:16:24;;;;;;;;;;;;;;;22.62;68.25;97381.23;594697;238;68602;-65
2023/09/26 14:18:52;;;;;;;;;;;;;;;22.63;68.14;97382.83;594619;238;66520;-66
2023/09/26 14:21:19;;;;;;;;;;;;;;;22.63;68.15;97385.51;594248;238;62743;-65
2023/09/26 14:23:47;;;;;;;;;;;;;;;22.63;67.64;97382.83;594687;238;68474;-66
2023/09/26 14:26:14;;;;;;;;;;;;;;;22.63;67.92;97382.03;595056;237;68569;-66
2023/09/26 14:28:43;;;;;;;;;;;;;;;22.63;67.99;97376.67;596992;237;64842;-66
2023/09/26 14:31:11;;;;;;;;;;;;;;;22.63;67.95;97368.64;596895;237;68439;-66
2023/09/26 14:33:43;;;;;;;;;;;;;;;22.63;68.20;97374.79;596868;237;69501;-66
2023/09/26 14:36:08;;;;;;;;;;;;;;;22.63;67.79;97371.31;596755;237;66204;-66
2023/09/26 14:38:36;;;;;;;;;;;;;;;22.62;67.84;97365.16;596913;237;68972;-66
2023/09/26 14:41:03;;;;;;;;;;;;;;;22.63;67.95;97373.99;596848;237;68604;-66
2023/09/26 14:43:34;;;;;;;;;;;;;;;22.63;68.11;97369.44;596959;237;62518;-67
2023/09/26 14:46:00;;;;;;;;;;;;;;;22.63;68.04;97369.44;596879;236;66464;-65
2023/09/26 14:48:28;;;;;;;;;;;;;;;22.63;68.02;97364.08;596970;237;68639;-65
2023/09/26 14:50:57;;;;;;;;;;;;;;;22.64;68.06;97362.19;596961;237;64942;-63
2023/09/26 14:53:26;;;;;;;;;;;;;;;22.62;67.95;97354.45;596920;237;66728;-63
2023/09/26 14:55:53;;;;;;;;;;;;;;;22.63;68.13;97363.28;596976;237;68577;-65
2023/09/26 14:58:21;;;;;;;;;;;;;;;22.63;68.00;97358.72;596983;237;65117;-65
2023/09/26 15:00:48;;;;;;;;;;;;;;;22.62;67.94;97357.13;596736;237;68423;-67
2023/09/26 15:03:17;;;;;;;;;;;;;;;22.63;67.99;97355.24;596870;237;68626;-64
2023/09/26 15:05:44;;;;;;;;;;;;;;;22.63;68.03;97361.40;597038;237;64898;-66
2023/09/26 15:08:12;;;;;;;;;;;;;;;22.62;67.98;97351.77;596957;235;68383;-66
2023/09/26 15:10:40;;;;;;;;;;;;;;;22.61;67.90;97355.50;596998;237;68605;-67
2023/09/26 15:13:08;;;;;;;;;;;;;;;22.61;67.53;97352.82;597001;235;65265;-66
2023/09/26 15:15:35;;;;;;;;;;;;;;;22.63;67.57;97355.24;597008;237;68634;-66
2023/09/26 15:18:03;;;;;;;;;;;;;;;22.63;67.97;97361.40;596982;237;68138;-67
2023/09/26 15:20:30;;;;;;;;;;;;;;;22.62;66.79;97351.77;597015;237;65076;-67
2023/09/26 15:22:58;;;;;;;;;;;;;;;22.62;66.71;97357.13;596999;237;68753;-66
2023/09/26 15:25:26;;;;;;;;;;;;;;;22.63;66.58;97358.72;596975;237;69030;-65
2023/09/26 15:27:53;;;;;;;;;;;;;;;22.64;66.78;97360.31;596999;235;66102;-67
2023/09/26 15:30:21;;;;;;;;;;;;;;;22.63;66.65;97356.04;597045;237;66549;-67
2023/09/26 15:32:48;;;;;;;;;;;;;;;22.64;66.56;97354.16;597010;236;66613;-67
2023/09/26 15:35:16;;;;;;;;;;;;;;;22.64;66.41;97354.16;597005;237;61619;-67
2023/09/26 15:37:43;;;;;;;;;;;;;;;22.64;66.32;97354.95;596940;235;68796;-67
2023/09/26 15:40:13;;;;;;;;;;;;;;;22.64;66.32;97352.27;597012;237;68707;-67
2023/09/26 15:42:40;;;;;;;;;;;;;;;22.64;66.18;97357.63;597055;237;62844;-67
2023/09/26 15:45:08;;;;;;;;;;;;;;;22.65;66.23;97358.45;596981;237;66189;-67
2023/09/26 15:47:36;;;;;;;;;;;;;;;22.65;66.23;97353.09;596988;237;68771;-67
2023/09/26 15:50:03;;;;;;;;;;;;;;;22.65;66.26;97361.14;597006;237;64899;-67
2023/09/26 15:52:30;;;;;;;;;;;;;;;22.65;66.23;97359.25;597002;237;66438;-67
2023/09/26 15:54:58;;;;;;;;;;;;;;;22.65;66.30;97361.14;597022;237;66755;-67
2023/09/26 15:57:25;;;;;;;;;;;;;;;22.66;66.36;97362.73;597029;237;64922;-67
2023/09/26 15:59:53;;;;;;;;;;;;;;;22.65;66.44;97367.29;597029;235;68820;-67
2023/09/26 16:02:20;;;;;;;;;;;;;;;22.66;66.46;97365.41;596949;237;69706;-68
2023/09/26 16:04:48;;;;;;;;;;;;;;;22.66;66.52;97366.20;597035;237;65157;-68
2023/09/26 16:07:16;;;;;;;;;;;;;;;22.66;66.55;97371.56;597042;237;66460;-66
2023/09/26 16:09:44;;;;;;;;;;;;;;;22.66;66.63;97363.53;596985;235;68576;-66
2023/09/26 16:12:11;;;;;;;;;;;;;;;22.65;66.64;97369.97;597030;237;63020;-66
2023/09/26 16:14:39;;;;;;;;;;;;;;;22.66;66.68;97370.77;596972;237;66499;-66
2023/09/26 16:17:06;;;;;;;;;;;;;;;22.66;66.74;97379.59;597033;237;66613;-67
2023/09/26 16:19:34;;;;;;;;;;;;;;;22.65;66.73;97375.33;597037;237;65085;-67
2023/09/26 16:22:01;;;;;;;;;;;;;;;22.65;66.71;97375.33;596973;236;68660;-67
2023/09/26 16:24:29;;;;;;;;;;;;;;;22.65;66.68;97372.65;597006;237;66576;-67
2023/09/26 16:26:56;;;;;;;;;;;;;;;22.65;66.72;97378.01;595843;237;65234;-66
2023/09/26 16:29:24;;;;;;;;;;;;;;;22.65;66.59;97374.53;594691;238;68656;-67
2023/09/26 16:31:51;;;;;;;;;;;;;;;22.65;66.65;97385.25;594777;236;68105;-67
2023/09/26 16:34:19;;;;;;;;;;;;;;;22.65;66.78;97382.56;594680;238;64971;-67
2023/09/26 16:36:47;;;;;;;;;;;;;;;22.65;66.78;97388.72;594764;238;68991;-67
2023/09/26 16:39:14;;;;;;;;;;;;;;;22.65;66.82;97396.76;594708;238;69030;-66
2023/09/26 16:41:43;;;;;;;;;;;;;;;22.65;66.80;97394.08;594727;238;65043;-67
2023/09/26 16:44:11;;;;;;;;;;;;;;;22.65;66.81;97391.40;594710;238;69031;-66
2023/09/26 16:46:38;;;;;;;;;;;;;;;22.65;66.86;97386.05;594706;238;68625;-66
2023/09/26 16:49:07;;;;;;;;;;;;;;;22.65;66.90;97401.31;594756;236;64857;-66
2023/09/26 16:51:35;;;;;;;;;;;;;;;22.65;66.87;97401.31;594768;238;68974;-66
2023/09/26 16:54:03;;;;;;;;;;;;;;;22.64;67.02;97400.49;594790;238;66557;-66
2023/09/26 16:56:30;;;;;;;;;;;;;;;22.65;67.00;97404.80;594786;238;64925;-67
2023/09/26 16:58:58;;;;;;;;;;;;;;;22.64;66.96;97403.17;594715;238;68271;-67
2023/09/26 17:01:25;;;;;;;;;;;;;;;22.64;66.97;97411.20;594788;238;68317;-67
2023/09/26 17:03:53;;;;;;;;;;;;;;;22.63;67.02;97404.26;594752;238;65235;-66
2023/09/26 17:06:20;;;;;;;;;;;;;;;22.64;67.02;97405.84;594806;238;68684;-66
2023/09/26 17:08:50;;;;;;;;;;;;;;;22.64;67.02;97413.89;594734;238;68355;-66
2023/09/26 17:11:17;;;;;;;;;;;;;;;22.64;67.09;97415.77;594775;238;65076;-66
2023/09/26 17:13:45;;;;;;;;;;;;;;;22.64;67.08;97423.80;594773;238;66419;-66
2023/09/26 17:16:12;;;;;;;;;;;;;;;22.64;67.11;97421.12;594767;238;68408;-66
2023/09/26 17:18:40;;;;;;;;;;;;;;;22.64;67.11;97418.45;594750;238;65041;-67
2023/09/26 17:21:09;;;;;;;;;;;;;;;22.63;67.09;97423.01;594766;238;66779;-66
2023/09/26 17:23:37;;;;;;;;;;;;;;;22.63;67.08;97425.69;594728;238;68628;-66
2023/09/26 17:26:04;;;;;;;;;;;;;;;22.63;67.01;97425.69;594715;238;62726;-67
2023/09/26 17:28:32;;;;;;;;;;;;;;;22.63;67.09;97423.01;594559;238;66683;-67
2023/09/26 17:30:59;;;;;;;;;;;;;;;22.63;67.16;97428.37;594690;238;68781;-66
2023/09/26 17:33:27;;;;;;;;;;;;;;;22.64;67.25;97435.31;594763;238;65024;-67
2023/09/26 17:35:55;;;;;;;;;;;;;;;22.63;67.21;97436.41;594728;236;69060;-66
2023/09/26 17:38:23;;;;;;;;;;;;;;;22.63;67.20;97443.64;594766;238;66857;-66
2023/09/26 17:40:52;;;;;;;;;;;;;;;22.63;67.35;97452.48;594752;238;62775;-66
2023/09/26 17:43:19;;;;;;;;;;;;;;;22.64;67.24;97446.03;594734;238;66930;-66
2023/09/26 17:45:47;;;;;;;;;;;;;;;22.63;67.35;97444.44;594771;238;66383;-66
2023/09/26 17:48:14;;;;;;;;;;;;;;;22.64;67.32;97453.27;594738;238;62506;-66
2023/09/26 17:50:42;;;;;;;;;;;;;;;22.63;67.34;97452.48;594739;237;68472;-66
2023/09/26 17:53:09;;;;;;;;;;;;;;;22.62;67.19;97456.24;594730;238;66988;-66
2023/09/26 17:55:37;;;;;;;;;;;;;;;22.64;67.19;97458.63;594760;238;62791;-66
2023/09/26 17:58:04;;;;;;;;;;;;;;;22.63;67.18;97467.75;594733;236;66548;-66
2023/09/26 18:00:32;;;;;;;;;;;;;;;22.63;67.19;97467.75;594758;238;66447;-66
2023/09/26 18:02:59;;;;;;;;;;;;;;;22.63;67.36;97476.59;594730;238;64771;-66
2023/09/26 18:05:27;;;;;;;;;;;;;;;22.63;67.44;97479.27;594729;238;68915;-66
2023/09/26 18:07:54;;;;;;;;;;;;;;;22.63;67.46;97468.55;594751;238;66244;-68
2023/09/26 18:10:22;;;;;;;;;;;;;;;22.64;67.49;97474.70;594795;238;63070;-66
2023/09/26 18:12:49;;;;;;;;;;;;;;;22.63;67.48;97479.27;594757;238;68450;-65
2023/09/26 18:15:17;;;;;;;;;;;;;;;22.63;67.44;97481.94;594744;238;66577;-66
2023/09/26 18:17:45;;;;;;;;;;;;;;;22.63;67.46;97481.94;594737;238;64994;-66
2023/09/26 18:20:13;;;;;;;;;;;;;;;22.62;67.49;97480.35;594761;238;68771;-65
2023/09/26 18:22:40;;;;;;;;;;;;;;;22.63;67.34;97483.83;594769;238;66248;-65
2023/09/26 18:25:08;;;;;;;;;;;;;;;22.63;67.41;97487.30;594782;238;65138;-65
2023/09/26 18:27:36;;;;;;;;;;;;;;;22.64;67.30;97485.42;594699;238;68648;-66
2023/09/26 18:30:04;;;;;;;;;;;;;;;22.63;67.47;97491.86;594756;236;68538;-65
2023/09/26 18:32:31;;;;;;;;;;;;;;;22.62;67.45;97496.42;594782;238;65116;-66
2023/09/26 18:35:00;;;;;;;;;;;;;;;22.62;67.40;97488.39;594824;236;66077;-66
2023/09/26 18:37:27;;;;;;;;;;;;;;;22.63;67.45;97489.19;594808;238;68471;-65
2023/09/26 18:39:55;;;;;;;;;;;;;;;22.62;67.42;97499.10;594770;238;64982;-65
2023/09/26 18:42:22;;;;;;;;;;;;;;;22.62;67.51;97501.78;594772;238;68523;-66
2023/09/26 18:44:50;;;;;;;;;;;;;;;22.62;67.48;97507.14;594774;238;68646;-66
2023/09/26 18:47:17;;;;;;;;;;;;;;;22.62;67.30;97507.14;594792;238;62725;-67
2023/09/26 18:49:45;;;;;;;;;;;;;;;22.62;67.31;97509.81;594770;236;67953;-66
2023/09/26 18:52:12;;;;;;;;;;;;;;;22.62;67.30;97509.81;594727;238;66195;-66
2023/09/26 18:54:40;;;;;;;;;;;;;;;22.63;67.37;97511.41;594722;236;64907;-66
2023/09/26 18:57:08;;;;;;;;;;;;;;;22.64;67.46;97522.92;594756;238;68370;-66
2023/09/26 18:59:40;;;;;;;;;;;;;;;22.63;67.63;97524.81;594715;238;66289;-66
2023/09/26 19:02:09;;;;;;;;;;;;;;;22.62;67.58;97520.53;594776;238;65143;-67
2023/09/26 19:04:37;;;;;;;;;;;;;;;22.62;67.47;97515.17;594606;238;68697;-67
2023/09/26 19:07:05;;;;;;;;;;;;;;;22.63;67.69;97522.13;594696;238;68762;-67
2023/09/26 19:09:33;;;;;;;;;;;;;;;22.63;67.51;97522.13;594763;238;65105;-66
2023/09/26 19:12:01;;;;;;;;;;;;;;;22.62;67.36;97523.21;594756;238;68503;-67
2023/09/26 19:14:29;;;;;;;;;;;;;;;22.63;67.54;97524.81;594770;238;68447;-66
2023/09/26 19:16:56;;;;;;;;;;;;;;;22.62;67.38;97528.57;592123;236;63790;-66
2023/09/26 19:19:24;;;;;;;;;;;;;;;22.63;67.46;97526.69;594781;238;66014;-66
2023/09/26 19:21:51;;;;;;;;;;;;;;;22.63;67.43;97532.05;594652;238;66251;-66
2023/09/26 19:24:19;;;;;;;;;;;;;;;22.62;67.42;97528.57;594761;238;62938;-67
2023/09/26 19:26:47;;;;;;;;;;;;;;;22.63;67.61;97532.05;594779;237;68436;-66
2023/09/26 19:29:18;;;;;;;;;;;;;;;22.62;67.69;97531.25;594538;238;68644;-67
2023/09/26 19:31:45;;;;;;;;;;;;;;;22.62;67.88;97533.92;594555;238;64973;-66
2023/09/26 19:34:12;;;;;;;;;;;;;;;22.62;67.81;97528.57;594633;238;69656;-68
2023/09/26 19:36:40;;;;;;;;;;;;;;;22.61;67.88;97530.42;594565;238;67910;-66
2023/09/26 19:39:07;;;;;;;;;;;;;;;22.61;68.11;97527.74;594875;238;62819;-66
2023/09/26 19:41:36;;;;;;;;;;;;;;;22.61;68.06;97530.42;594663;238;66170;-66
2023/09/26 19:44:03;;;;;;;;;;;;;;;22.61;67.95;97529.63;594680;238;68461;-66
2023/09/26 19:46:31;;;;;;;;;;;;;;;22.62;67.70;97531.25;594504;238;65084;-66
2023/09/26 19:48:58;;;;;;;;;;;;;;;22.60;67.89;97523.47;594655;238;68431;-66
2023/09/26 19:51:26;;;;;;;;;;;;;;;22.61;67.72;97524.27;594417;238;66157;-66
2023/09/26 19:53:54;;;;;;;;;;;;;;;22.61;67.69;97518.91;594471;238;65131;-66
2023/09/26 19:56:25;;;;;;;;;;;;;;;22.61;67.71;97525.06;594458;238;68119;-66
2023/09/26 19:58:53;;;;;;;;;;;;;;;22.61;67.86;97519.70;594637;238;68411;-67
2023/09/26 20:01:26;;;;;;;;;;;;;;;22.61;67.69;97530.42;594643;238;65181;-67
2023/09/26 20:03:54;;;;;;;;;;;;;;;22.61;67.53;97521.59;594756;238;68500;-67
2023/09/26 20:06:22;;;;;;;;;;;;;;;22.62;67.80;97531.25;594687;238;68466;-67
2023/09/26 20:08:49;;;;;;;;;;;;;;;22.62;68.16;97531.25;594391;238;63005;-67
2023/09/26 20:11:17;;;;;;;;;;;;;;;22.61;68.17;97525.06;594659;238;68661;-67
2023/09/26 20:13:44;;;;;;;;;;;;;;;22.60;67.91;97528.03;594652;238;68200;-67
2023/09/26 20:16:12;;;;;;;;;;;;;;;22.61;67.84;97529.63;594750;237;64894;-66
2023/09/26 20:18:39;;;;;;;;;;;;;;;22.61;67.87;97530.42;594632;238;65860;-67
2023/09/26 20:21:07;;;;;;;;;;;;;;;22.61;67.80;97534.98;594863;238;66495;-67
2023/09/26 20:23:34;;;;;;;;;;;;;;;22.61;67.69;97534.98;594813;238;65085;-67
2023/09/26 20:26:03;;;;;;;;;;;;;;;22.61;67.76;97540.34;594711;238;68514;-67
2023/09/26 20:28:31;;;;;;;;;;;;;;;22.61;67.73;97538.45;595185;238;68493;-67
2023/09/26 20:30:58;;;;;;;;;;;;;;;22.61;67.69;97529.63;595207;238;63057;-67
2023/09/26 20:33:27;;;;;;;;;;;;;;;22.62;67.87;97531.25;595139;238;69291;-67
2023/09/26 20:36:00;;;;;;;;;;;;;;;22.60;67.91;97539.54;595171;238;68489;-67
2023/09/26 20:38:28;;;;;;;;;;;;;;;22.61;68.32;97532.30;595245;238;64929;-66
2023/09/26 20:41:02;;;;;;;;;;;;;;;22.61;67.89;97530.42;595128;238;68155;-67
2023/09/26 20:43:30;;;;;;;;;;;;;;;22.60;68.00;97533.38;595130;238;68422;-67
2023/09/26 20:45:57;;;;;;;;;;;;;;;22.61;67.72;97530.42;595233;238;65109;-67
2023/09/26 20:48:25;;;;;;;;;;;;;;;22.60;67.92;97531.50;595237;238;68780;-67
2023/09/26 20:50:53;;;;;;;;;;;;;;;22.61;67.98;97532.30;595130;238;68508;-67
2023/09/26 20:53:20;;;;;;;;;;;;;;;22.60;67.97;97531.50;595143;238;65092;-67
2023/09/26 20:55:48;;;;;;;;;;;;;;;22.60;67.96;97528.83;595095;238;66153;-67
2023/09/26 20:58:15;;;;;;;;;;;;;;;22.60;68.31;97526.14;595129;238;66270;-67
2023/09/26 21:00:43;;;;;;;;;;;;;;;22.60;68.09;97518.11;595226;238;65002;-67
2023/09/26 21:03:10;;;;;;;;;;;;;;;22.61;68.33;97516.23;595208;238;68166;-67
2023/09/26 21:05:39;;;;;;;;;;;;;;;22.61;67.96;97521.59;595083;238;68103;-67
2023/09/26 21:08:07;;;;;;;;;;;;;;;22.60;68.37;97523.47;595168;238;64907;-67
2023/09/26 21:10:35;;;;;;;;;;;;;;;22.61;68.50;97521.59;595146;238;66210;-67
2023/09/26 21:13:02;;;;;;;;;;;;;;;22.61;68.47;97519.70;595196;238;66237;-67
2023/09/26 21:15:30;;;;;;;;;;;;;;;22.61;68.60;97524.27;595218;238;62896;-67
2023/09/26 21:17:58;;;;;;;;;;;;;;;22.60;68.40;97520.79;595251;238;66320;-67
2023/09/26 21:20:25;;;;;;;;;;;;;;;22.60;68.44;97518.11;595138;238;68035;-67
2023/09/26 21:22:53;;;;;;;;;;;;;;;22.60;68.42;97517.31;595158;238;64875;-67
2023/09/26 21:25:20;;;;;;;;;;;;;;;22.61;68.55;97519.70;595093;238;65854;-67
2023/09/26 21:27:48;;;;;;;;;;;;;;;22.60;68.63;97511.95;595197;238;65940;-67
2023/09/26 21:30:15;;;;;;;;;;;;;;;22.61;68.55;97516.23;595255;238;62883;-67
2023/09/26 21:32:43;;;;;;;;;;;;;;;22.60;68.87;97506.59;595245;238;66439;-67
2023/09/26 21:35:11;;;;;;;;;;;;;;;22.60;68.52;97511.95;595221;238;66366;-67
2023/09/26 21:37:38;;;;;;;;;;;;;;;22.60;68.63;97512.75;595153;238;64637;-67
2023/09/26 21:40:06;;;;;;;;;;;;;;;22.60;68.33;97511.95;595214;238;65997;-67
2023/09/26 21:42:34;;;;;;;;;;;;;;;22.60;68.65;97514.63;595168;238;68618;-67
2023/09/26 21:45:02;;;;;;;;;;;;;;;22.59;68.39;97511.16;595284;238;64940;-67
2023/09/26 21:47:29;;;;;;;;;;;;;;;22.59;68.29;97508.48;595081;238;68527;-67
2023/09/26 21:50:01;;;;;;;;;;;;;;;22.60;68.23;97509.27;595244;238;68448;-66
2023/09/26 21:52:26;;;;;;;;;;;;;;;22.59;68.40;97508.48;595038;237;62482;-66
2023/09/26 21:54:53;;;;;;;;;;;;;;;22.60;68.48;97511.95;595264;238;65536;-66
2023/09/26 21:57:21;;;;;;;;;;;;;;;22.60;69.00;97511.95;595196;238;68348;-66
2023/09/26 21:59:48;;;;;;;;;;;;;;;22.60;68.86;97503.92;595257;238;64972;-66
2023/09/26 22:02:16;;;;;;;;;;;;;;;22.59;69.00;97503.13;595260;238;66504;-66
2023/09/26 22:04:44;;;;;;;;;;;;;;;22.59;68.62;97505.80;595150;238;68474;-67
2023/09/26 22:07:13;;;;;;;;;;;;;;;22.60;68.75;97506.59;595132;238;62651;-66
2023/09/26 22:09:41;;;;;;;;;;;;;;;22.60;68.69;97506.59;595218;238;66292;-66
2023/09/26 22:12:08;;;;;;;;;;;;;;;22.60;68.96;97512.75;595199;238;66511;-67
2023/09/26 22:14:36;;;;;;;;;;;;;;;22.59;68.86;97505.80;595111;238;64897;-67
2023/09/26 22:17:04;;;;;;;;;;;;;;;22.60;68.88;97503.92;595203;238;68390;-67
2023/09/26 22:19:32;;;;;;;;;;;;;;;22.59;68.71;97496.97;595210;238;66531;-67
2023/09/26 22:22:01;;;;;;;;;;;;;;;22.58;68.66;97501.50;595183;238;63747;-67
2023/09/26 22:24:29;;;;;;;;;;;;;;;22.57;68.50;97489.19;595119;238;68837;-66
2023/09/26 22:26:57;;;;;;;;;;;;;;;22.58;68.42;97498.81;595001;237;68954;-66
2023/09/26 22:29:24;;;;;;;;;;;;;;;22.58;68.61;97490.78;594630;238;64844;-67
2023/09/26 22:31:52;;;;;;;;;;;;;;;22.57;68.39;97493.74;594800;238;66563;-66
2023/09/26 22:34:19;;;;;;;;;;;;;;;22.57;68.21;97491.86;594775;238;68516;-67
2023/09/26 22:36:47;;;;;;;;;;;;;;;22.58;68.32;97504.17;594926;238;65066;-67
2023/09/26 22:39:14;;;;;;;;;;;;;;;22.58;68.95;97504.17;594727;238;68502;-66
2023/09/26 22:41:42;;;;;;;;;;;;;;;22.59;68.93;97502.33;594749;238;68446;-67
2023/09/26 22:44:10;;;;;;;;;;;;;;;22.58;68.46;97498.02;594785;238;63853;-67
2023/09/26 22:46:37;;;;;;;;;;;;;;;22.57;68.42;97501.78;594849;238;68667;-67
2023/09/26 22:49:04;;;;;;;;;;;;;;;22.57;68.50;97493.74;594691;238;68983;-67
2023/09/26 22:51:32;;;;;;;;;;;;;;;22.57;68.27;97496.42;594625;238;62916;-67
2023/09/26 22:54:00;;;;;;;;;;;;;;;22.57;68.42;97488.39;594713;238;68669;-66
2023/09/26 22:56:27;;;;;;;;;;;;;;;22.56;68.35;97495.63;594615;238;68603;-66
2023/09/26 22:58:55;;;;;;;;;;;;;;;22.56;68.45;97495.63;594415;238;62794;-66
2023/09/26 23:01:22;;;;;;;;;;;;;;;22.55;68.45;97491.32;594938;238;66353;-66
2023/09/26 23:03:50;;;;;;;;;;;;;;;22.56;68.23;97492.12;594586;238;66575;-66
2023/09/26 23:06:17;;;;;;;;;;;;;;;22.56;68.26;97487.59;594861;238;62622;-66
2023/09/26 23:08:45;;;;;;;;;;;;;;;22.57;68.43;97489.19;594701;238;68514;-66
2023/09/26 23:11:13;;;;;;;;;;;;;;;22.56;68.36;97482.23;594805;238;68537;-66
2023/09/26 23:13:40;;;;;;;;;;;;;;;22.57;68.42;97483.03;594549;238;64782;-66
2023/09/26 23:16:08;;;;;;;;;;;;;;;22.56;68.80;97484.91;594753;238;68972;-66